createdAt,value
2018-07-15T00:02:23.564Z,22.40
2018-07-15T00:04:52.278Z,22.40
2018-07-15T00:07:20.914Z,22.40
2018-07-15T00:09:49.538Z,22.30
2018-07-15T00:12:18.213Z,22.30
2018-07-15T00:14:46.865Z,22.30
2018-07-15T00:17:15.809Z,22.30
2018-07-15T00:19:44.983Z,22.30
2018-07-15T00:22:13.736Z,22.30
2018-07-15T00:24:42.520Z,22.30
2018-07-15T00:27:11.493Z,22.30
2018-07-15T00:29:41.244Z,22.20
2018-07-15T00:32:09.884Z,22.20
2018-07-15T00:34:38.653Z,22.10
2018-07-15T00:37:09.140Z,22.10
2018-07-15T00:39:39.069Z,22.00
2018-07-15T00:42:09.529Z,21.90
2018-07-15T00:44:38.532Z,21.80
2018-07-15T00:47:07.281Z,21.80
2018-07-15T00:49:35.981Z,21.70
2018-07-15T00:52:05.114Z,21.70
2018-07-15T00:54:34.241Z,21.70
2018-07-15T00:57:03.724Z,21.70
2018-07-15T00:59:32.852Z,21.70
2018-07-15T01:02:02.357Z,21.70
2018-07-15T01:07:04.352Z,21.70
2018-07-15T01:09:33.035Z,21.70
2018-07-15T01:12:01.718Z,21.70
2018-07-15T01:14:30.384Z,21.70
2018-07-15T01:16:59.769Z,21.60
2018-07-15T01:19:28.539Z,21.70
2018-07-15T01:21:57.169Z,21.70
2018-07-15T01:24:25.841Z,21.70
2018-07-15T01:26:54.623Z,21.60
2018-07-15T01:29:23.607Z,21.50
2018-07-15T01:31:52.408Z,21.50
2018-07-15T01:34:25.001Z,21.40
2018-07-15T01:36:53.732Z,21.30
2018-07-15T01:39:22.387Z,21.40
2018-07-15T01:41:51.064Z,21.40
2018-07-15T01:44:19.768Z,21.30
2018-07-15T01:46:48.402Z,21.30
2018-07-15T01:49:17.039Z,21.20
2018-07-15T01:51:45.689Z,21.20
2018-07-15T01:54:14.384Z,21.20
2018-07-15T01:56:43.083Z,21.10
2018-07-15T01:59:11.713Z,21.20
2018-07-15T02:01:40.624Z,21.20
2018-07-15T02:04:09.273Z,21.20
2018-07-15T02:06:37.962Z,21.10
2018-07-15T02:09:06.657Z,21.20
2018-07-15T02:11:35.285Z,21.20
2018-07-15T02:14:03.917Z,21.10
2018-07-15T02:16:33.603Z,21.20
2018-07-15T02:19:02.249Z,21.10
2018-07-15T02:21:30.873Z,21.10
2018-07-15T02:23:59.561Z,21.10
2018-07-15T02:26:29.136Z,21.10
2018-07-15T02:28:57.756Z,21.10
2018-07-15T02:31:26.413Z,21.00
2018-07-15T02:36:23.377Z,21.00
2018-07-15T02:38:52.048Z,21.10
2018-07-15T02:41:24.568Z,21.10
2018-07-15T02:43:53.228Z,21.00
2018-07-15T02:48:50.210Z,21.10
2018-07-15T02:51:18.853Z,21.20
2018-07-15T02:53:47.502Z,21.10
2018-07-15T02:56:16.156Z,21.10
2018-07-15T02:58:44.797Z,21.10
2018-07-15T03:01:13.437Z,21.20
2018-07-15T03:03:42.089Z,21.30
2018-07-15T03:08:39.028Z,21.40
2018-07-15T03:11:07.733Z,21.50
2018-07-15T03:13:36.424Z,21.60
2018-07-15T03:16:06.976Z,21.70
2018-07-15T03:18:36.613Z,21.90
2018-07-15T03:21:05.272Z,22.00
2018-07-15T03:23:33.957Z,22.10
2018-07-15T03:26:04.830Z,22.20
2018-07-15T03:28:33.512Z,22.30
2018-07-15T03:31:02.166Z,22.40
2018-07-15T03:33:30.807Z,22.40
2018-07-15T03:35:59.474Z,22.50
2018-07-15T03:38:28.108Z,22.60
2018-07-15T03:40:56.800Z,22.60
2018-07-15T03:43:25.484Z,22.60
2018-07-15T03:45:54.355Z,22.70
2018-07-15T03:50:51.281Z,22.70
2018-07-15T03:53:19.902Z,22.70
2018-07-15T03:55:48.524Z,22.70
2018-07-15T03:58:17.167Z,22.70
2018-07-15T04:00:45.831Z,22.70
2018-07-15T04:03:14.557Z,22.70
2018-07-15T04:05:43.246Z,22.70
2018-07-15T04:08:12.848Z,22.60
2018-07-15T04:13:09.799Z,22.60
2018-07-15T04:15:38.440Z,22.60
2018-07-15T04:18:07.247Z,22.60
2018-07-15T04:20:36.799Z,22.60
2018-07-15T04:23:06.134Z,22.60
2018-07-15T04:25:35.315Z,22.70
2018-07-15T04:28:04.433Z,22.70
2018-07-15T04:30:33.169Z,22.70
2018-07-15T04:35:30.187Z,22.70
2018-07-15T04:37:58.848Z,22.70
2018-07-15T04:40:27.481Z,22.70
2018-07-15T04:42:56.146Z,22.70
2018-07-15T04:45:24.786Z,22.60
2018-07-15T04:47:53.508Z,22.60
2018-07-15T04:50:22.171Z,22.60
2018-07-15T04:52:50.837Z,22.60
2018-07-15T04:55:19.489Z,22.60
2018-07-15T04:57:48.137Z,22.50
2018-07-15T05:00:16.796Z,22.50
2018-07-15T05:02:45.437Z,22.50
2018-07-15T05:05:14.109Z,22.50
2018-07-15T05:07:42.772Z,22.60
2018-07-15T05:10:11.436Z,22.60
2018-07-15T05:12:40.077Z,22.60
2018-07-15T05:15:09.422Z,22.60
2018-07-15T05:17:38.086Z,22.60
2018-07-15T05:20:06.763Z,22.60
2018-07-15T05:22:35.400Z,22.60
2018-07-15T05:25:04.074Z,22.70
2018-07-15T05:27:32.787Z,22.70
2018-07-15T05:30:01.416Z,22.70
2018-07-15T05:32:30.050Z,22.60
2018-07-15T05:34:58.774Z,22.60
2018-07-15T05:37:27.458Z,22.60
2018-07-15T05:39:56.152Z,22.70
2018-07-15T05:42:24.824Z,22.70
2018-07-15T05:44:53.460Z,22.80
2018-07-15T05:47:22.097Z,22.80
2018-07-15T05:49:50.880Z,22.80
2018-07-15T05:52:19.549Z,22.80
2018-07-15T05:54:48.275Z,22.80
2018-07-15T05:57:17.382Z,22.90
2018-07-15T05:59:46.043Z,22.90
2018-07-15T06:02:14.708Z,22.90
2018-07-15T06:04:43.326Z,23.00
2018-07-15T06:07:11.975Z,23.10
2018-07-15T06:09:40.608Z,23.30
2018-07-15T06:12:09.311Z,23.60
2018-07-15T06:14:37.933Z,23.80
2018-07-15T06:17:06.691Z,23.90
2018-07-15T06:19:35.381Z,24.00
2018-07-15T06:22:07.157Z,24.10
2018-07-15T06:24:39.175Z,24.30
2018-07-15T06:27:11.853Z,24.40
2018-07-15T06:29:44.398Z,24.40
2018-07-15T06:32:15.511Z,24.50
2018-07-15T06:34:47.516Z,24.50
2018-07-15T06:37:17.189Z,24.50
2018-07-15T06:39:46.831Z,24.60
2018-07-15T06:42:18.072Z,25.10
2018-07-15T06:44:50.265Z,25.60
2018-07-15T06:47:21.800Z,26.20
2018-07-15T06:49:55.894Z,26.60
2018-07-15T06:52:27.860Z,26.60
2018-07-15T06:55:01.380Z,26.70
2018-07-15T06:57:41.216Z,26.60
2018-07-15T07:00:11.941Z,26.60
2018-07-15T07:02:43.180Z,26.80
2018-07-15T07:05:13.007Z,27.10
2018-07-15T07:07:42.808Z,27.50
2018-07-15T07:12:44.514Z,28.30
2018-07-15T07:15:13.135Z,28.50
2018-07-15T07:17:42.984Z,28.80
2018-07-15T07:20:11.668Z,29.10
2018-07-15T07:22:40.323Z,29.50
2018-07-15T07:25:08.972Z,29.90
2018-07-15T07:27:37.632Z,30.30
2018-07-15T07:30:06.366Z,30.50
2018-07-15T07:32:35.036Z,30.70
2018-07-15T07:35:03.712Z,30.80
2018-07-15T07:37:32.397Z,31.00
2018-07-15T07:40:01.040Z,31.20
2018-07-15T07:42:29.710Z,31.30
2018-07-15T07:44:58.341Z,31.50
2018-07-15T07:47:27.037Z,31.50
2018-07-15T07:49:55.665Z,31.50
2018-07-15T07:52:24.360Z,31.60
2018-07-15T07:54:53.007Z,31.80
2018-07-15T07:57:21.632Z,31.80
2018-07-15T07:59:50.307Z,31.90
2018-07-15T08:02:18.966Z,31.90
2018-07-15T08:04:47.615Z,32.00
2018-07-15T08:07:16.300Z,32.10
2018-07-15T08:09:44.977Z,32.20
2018-07-15T08:12:13.595Z,32.20
2018-07-15T08:14:42.256Z,32.20
2018-07-15T08:17:10.901Z,32.20
2018-07-15T08:19:39.567Z,32.10
2018-07-15T08:22:08.652Z,32.10
2018-07-15T08:24:37.279Z,32.20
2018-07-15T08:27:06.082Z,32.10
2018-07-15T08:29:34.827Z,32.00
2018-07-15T08:32:03.509Z,32.00
2018-07-15T08:34:32.123Z,31.90
2018-07-15T08:37:00.813Z,31.90
2018-07-15T08:39:29.560Z,32.00
2018-07-15T08:41:58.232Z,32.10
2018-07-15T08:44:27.071Z,32.00
2018-07-15T08:46:55.700Z,31.80
2018-07-15T08:49:24.360Z,31.70
2018-07-15T08:51:53.043Z,31.70
2018-07-15T08:56:50.026Z,31.80
2018-07-15T08:59:18.681Z,31.90
2018-07-15T09:01:47.329Z,31.80
2018-07-15T09:04:15.973Z,31.80
2018-07-15T09:06:44.580Z,31.80
2018-07-15T09:09:13.220Z,31.90
2018-07-15T09:11:41.856Z,31.90
2018-07-15T09:14:10.507Z,31.90
2018-07-15T09:16:39.145Z,31.90
2018-07-15T09:19:07.805Z,31.80
2018-07-15T09:21:36.458Z,31.70
2018-07-15T09:24:05.113Z,31.90
2018-07-15T09:26:33.743Z,31.90
2018-07-15T09:29:02.400Z,32.00
2018-07-15T09:31:31.064Z,32.10
2018-07-15T09:33:59.704Z,32.20
2018-07-15T09:36:29.671Z,32.30
2018-07-15T09:38:58.344Z,32.40
2018-07-15T09:41:27.456Z,32.30
2018-07-15T09:43:56.412Z,32.40
2018-07-15T09:46:34.930Z,32.50
2018-07-15T09:49:22.352Z,32.50
2018-07-15T09:51:51.369Z,32.70
2018-07-15T09:54:22.090Z,32.90
2018-07-15T09:56:50.881Z,33.10
2018-07-15T09:59:21.020Z,33.10
2018-07-15T10:01:49.764Z,33.20
2018-07-15T10:04:18.412Z,33.30
2018-07-15T10:06:47.096Z,33.50
2018-07-15T10:09:18.173Z,33.70
2018-07-15T10:11:55.056Z,33.80
2018-07-15T10:14:24.765Z,33.70
2018-07-15T10:16:54.418Z,33.80
2018-07-15T10:19:25.931Z,33.90
2018-07-15T10:21:54.600Z,33.90
2018-07-15T10:24:25.784Z,34.00
2018-07-15T10:26:56.217Z,34.10
2018-07-15T10:29:25.956Z,34.10
2018-07-15T10:31:55.722Z,34.30
2018-07-15T10:34:24.367Z,34.30
2018-07-15T10:36:54.280Z,34.50
2018-07-15T10:39:28.123Z,34.60
2018-07-15T10:41:57.153Z,34.80
2018-07-15T10:44:25.788Z,34.70
2018-07-15T10:46:54.424Z,34.80
2018-07-15T10:49:23.060Z,34.90
2018-07-15T10:51:51.720Z,35.00
2018-07-15T10:54:20.411Z,35.10
2018-07-15T10:56:49.060Z,35.10
2018-07-15T10:59:17.703Z,35.10
2018-07-15T11:01:47.158Z,35.10
2018-07-15T11:04:15.776Z,35.00
2018-07-15T11:06:44.438Z,35.10
2018-07-15T11:09:13.074Z,35.30
2018-07-15T11:11:41.676Z,35.50
2018-07-15T11:14:14.055Z,35.40
2018-07-15T11:16:43.519Z,35.50
2018-07-15T11:19:19.072Z,35.60
2018-07-15T11:21:49.292Z,35.70
2018-07-15T11:24:21.284Z,36.00
2018-07-15T11:26:54.223Z,36.00
2018-07-15T11:29:24.874Z,35.90
2018-07-15T11:31:56.220Z,35.80
2018-07-15T11:34:25.211Z,35.60
2018-07-15T11:36:54.220Z,35.70
2018-07-15T11:39:25.142Z,35.70
2018-07-15T11:41:54.806Z,35.60
2018-07-15T11:44:26.615Z,35.90
2018-07-15T11:46:59.741Z,36.10
2018-07-15T11:49:31.244Z,36.10
2018-07-15T11:52:00.588Z,36.30
2018-07-15T11:54:33.774Z,36.40
2018-07-15T11:57:04.313Z,36.70
2018-07-15T11:59:36.044Z,36.80
2018-07-15T12:02:05.146Z,36.80
2018-07-15T12:07:06.965Z,37.10
2018-07-15T12:12:06.553Z,37.20
2018-07-15T12:14:35.543Z,37.30
2018-07-15T12:17:06.852Z,37.40
2018-07-15T12:19:36.784Z,37.40
2018-07-15T12:22:06.720Z,37.40
2018-07-15T12:24:35.435Z,37.50
2018-07-15T12:29:34.352Z,37.70
2018-07-15T12:32:04.395Z,37.70
2018-07-15T12:34:33.060Z,37.70
2018-07-15T12:37:05.589Z,37.70
2018-07-15T12:39:34.336Z,37.70
2018-07-15T12:42:03.434Z,37.80
2018-07-15T12:44:33.215Z,37.80
2018-07-15T12:47:02.911Z,37.60
2018-07-15T12:49:31.824Z,37.70
2018-07-15T12:52:04.959Z,37.80
2018-07-15T12:54:39.952Z,37.80
2018-07-15T12:57:10.050Z,37.60
2018-07-15T12:59:38.664Z,37.50
2018-07-15T13:02:10.256Z,37.40
2018-07-15T13:04:46.264Z,37.30
2018-07-15T13:07:17.230Z,37.40
2018-07-15T13:09:47.604Z,37.30
2018-07-15T13:12:16.288Z,37.20
2018-07-15T13:14:45.100Z,37.20
2018-07-15T13:17:13.768Z,37.10
2018-07-15T13:19:42.400Z,37.20
2018-07-15T13:22:11.128Z,37.20
2018-07-15T13:24:39.766Z,37.20
2018-07-15T13:27:08.414Z,37.20
2018-07-15T13:29:37.114Z,37.20
2018-07-15T13:32:05.984Z,37.20
2018-07-15T13:34:34.599Z,37.10
2018-07-15T13:37:03.288Z,36.80
2018-07-15T13:39:31.900Z,36.80
2018-07-15T13:42:00.564Z,36.80
2018-07-15T13:44:29.257Z,36.80
2018-07-15T13:46:57.887Z,37.00
2018-07-15T13:49:26.516Z,37.00
2018-07-15T13:51:55.124Z,37.10
2018-07-15T13:54:23.745Z,37.20
2018-07-15T13:56:52.336Z,37.20
2018-07-15T13:59:20.952Z,37.20
2018-07-15T14:01:49.550Z,37.10
2018-07-15T14:04:18.189Z,37.10
2018-07-15T14:06:46.825Z,37.00
2018-07-15T14:09:15.545Z,36.90
2018-07-15T14:11:44.201Z,37.00
2018-07-15T14:14:13.130Z,37.10
2018-07-15T14:16:46.903Z,37.10
2018-07-15T14:19:15.744Z,37.10
2018-07-15T14:21:44.395Z,37.00
2018-07-15T14:24:13.371Z,37.00
2018-07-15T14:26:42.383Z,37.00
2018-07-15T14:29:11.364Z,36.90
2018-07-15T14:31:41.037Z,36.80
2018-07-15T14:34:10.027Z,36.80
2018-07-15T14:36:48.604Z,36.80
2018-07-15T14:39:20.240Z,36.70
2018-07-15T14:41:53.856Z,36.60
2018-07-15T14:44:29.798Z,36.50
2018-07-15T14:47:02.048Z,36.50
2018-07-15T14:49:31.472Z,36.50
2018-07-15T14:52:01.880Z,36.40
2018-07-15T14:54:30.622Z,36.20
2018-07-15T14:56:59.356Z,36.10
2018-07-15T14:59:27.968Z,36.00
2018-07-15T15:02:04.413Z,36.00
2018-07-15T15:04:36.925Z,36.00
2018-07-15T15:07:12.382Z,35.90
2018-07-15T15:09:42.856Z,35.90
2018-07-15T15:12:12.377Z,35.80
2018-07-15T15:14:41.803Z,35.80
2018-07-15T15:17:10.854Z,35.70
2018-07-15T15:19:40.168Z,35.70
2018-07-15T15:22:09.418Z,35.60
2018-07-15T15:24:38.264Z,35.60
2018-07-15T15:27:06.941Z,35.50
2018-07-15T15:29:35.662Z,35.40
2018-07-15T15:32:04.764Z,35.30
2018-07-15T15:34:33.515Z,35.30
2018-07-15T15:37:02.865Z,35.20
2018-07-15T15:39:33.450Z,35.20
2018-07-15T15:42:03.002Z,35.20
2018-07-15T15:44:32.079Z,35.00
2018-07-15T15:47:01.482Z,35.00
2018-07-15T15:49:30.285Z,34.90
2018-07-15T15:51:59.099Z,34.80
2018-07-15T15:54:33.126Z,34.70
2018-07-15T15:57:02.122Z,34.70
2018-07-15T15:59:31.554Z,34.60
2018-07-15T16:02:00.488Z,34.60
2018-07-15T16:04:29.319Z,34.50
2018-07-15T16:06:58.169Z,34.40
2018-07-15T16:09:28.003Z,34.40
2018-07-15T16:11:57.089Z,34.40
2018-07-15T16:14:28.933Z,34.30
2018-07-15T16:17:01.677Z,34.30
2018-07-15T16:19:37.000Z,34.20
2018-07-15T16:22:06.988Z,34.20
2018-07-15T16:24:37.039Z,34.10
2018-07-15T16:27:08.787Z,34.00
2018-07-15T16:29:42.892Z,33.90
2018-07-15T16:32:16.685Z,33.80
2018-07-15T16:34:48.219Z,33.80
2018-07-15T16:37:19.844Z,33.70
2018-07-15T16:42:22.049Z,33.70
2018-07-15T16:44:54.579Z,33.60
2018-07-15T16:47:25.093Z,33.50
2018-07-15T16:49:56.106Z,33.50
2018-07-15T16:52:27.630Z,33.40
2018-07-15T16:55:03.440Z,33.40
2018-07-15T16:57:33.459Z,33.40
2018-07-15T17:00:08.548Z,33.30
2018-07-15T17:02:45.989Z,33.30
2018-07-15T17:05:17.861Z,33.20
2018-07-15T17:07:49.455Z,33.20
2018-07-15T17:10:18.511Z,33.10
2018-07-15T17:12:49.033Z,33.10
2018-07-15T17:15:29.088Z,33.00
2018-07-15T17:17:58.331Z,32.90
2018-07-15T17:20:27.139Z,32.80
2018-07-15T17:22:56.756Z,32.80
2018-07-15T17:25:25.651Z,32.60
2018-07-15T17:27:59.012Z,32.60
2018-07-15T17:30:32.488Z,32.50
2018-07-15T17:33:10.720Z,32.50
2018-07-15T17:35:48.612Z,32.50
2018-07-15T17:38:17.380Z,32.40
2018-07-15T17:40:48.206Z,32.30
2018-07-15T17:43:16.912Z,32.30
2018-07-15T17:48:14.036Z,32.20
2018-07-15T17:50:42.681Z,32.20
2018-07-15T17:53:11.332Z,32.10
2018-07-15T17:55:40.021Z,32.00
2018-07-15T17:58:08.656Z,31.90
2018-07-15T18:00:37.336Z,31.80
2018-07-15T18:03:06.019Z,31.80
2018-07-15T18:05:34.636Z,31.60
2018-07-15T18:08:03.256Z,31.50
2018-07-15T18:10:31.929Z,31.50
2018-07-15T18:13:00.647Z,31.50
2018-07-15T18:15:29.279Z,31.40
2018-07-15T18:17:57.916Z,31.30
2018-07-15T18:20:26.536Z,31.20
2018-07-15T18:22:55.176Z,31.00
2018-07-15T18:25:23.816Z,31.00
2018-07-15T18:27:52.492Z,30.90
2018-07-15T18:30:21.114Z,30.90
2018-07-15T18:32:50.748Z,30.70
2018-07-15T18:35:19.439Z,30.60
2018-07-15T18:42:54.562Z,30.30
2018-07-15T18:45:23.220Z,30.20
2018-07-15T18:47:57.164Z,30.20
2018-07-15T18:50:29.373Z,30.10
2018-07-15T18:52:59.657Z,30.00
2018-07-15T18:55:28.538Z,29.80
2018-07-15T18:57:57.212Z,29.70
2018-07-15T19:00:25.868Z,29.50
2018-07-15T19:02:54.507Z,29.40
2018-07-15T19:05:24.195Z,29.20
2018-07-15T19:07:53.488Z,29.20
2018-07-15T19:10:23.593Z,29.10
2018-07-15T19:15:20.851Z,28.90
2018-07-15T19:17:49.544Z,28.80
2018-07-15T19:20:23.508Z,28.70
2018-07-15T19:22:54.278Z,28.60
2018-07-15T19:25:22.948Z,28.50
2018-07-15T19:27:51.854Z,28.40
2018-07-15T19:30:21.137Z,28.40
2018-07-15T19:32:52.851Z,28.40
2018-07-15T19:35:23.912Z,28.30
2018-07-15T19:37:56.904Z,28.30
2018-07-15T19:40:34.128Z,28.20
2018-07-15T19:43:06.214Z,28.10
2018-07-15T19:45:35.820Z,28.00
2018-07-15T19:48:04.561Z,28.00
2018-07-15T19:50:33.179Z,28.00
2018-07-15T19:53:01.847Z,28.00
2018-07-15T19:55:30.475Z,28.00
2018-07-15T19:57:59.119Z,27.90
2018-07-15T20:00:27.752Z,27.90
2018-07-15T20:02:56.369Z,27.80
2018-07-15T20:05:25.008Z,27.70
2018-07-15T20:07:54.688Z,27.70
2018-07-15T20:10:24.500Z,27.60
2018-07-15T20:12:53.176Z,27.70
2018-07-15T20:45:03.261Z,26.20
2018-07-15T20:47:31.940Z,26.20
2018-07-15T20:50:00.583Z,26.20
2018-07-15T20:52:29.251Z,26.30
2018-07-15T20:54:57.909Z,26.40
2018-07-15T20:57:26.551Z,26.40
2018-07-15T20:59:55.176Z,26.30
2018-07-15T21:02:23.834Z,26.40
2018-07-15T21:04:52.472Z,26.30
2018-07-15T21:07:21.132Z,26.30
2018-07-15T21:09:49.793Z,26.10
2018-07-15T21:12:18.396Z,26.00
2018-07-15T21:14:47.088Z,25.90
2018-07-15T21:17:15.691Z,25.80
2018-07-15T21:19:44.307Z,25.70
2018-07-15T21:22:12.957Z,25.70
2018-07-15T21:24:41.742Z,25.60
2018-07-15T21:27:10.376Z,25.60
2018-07-15T21:29:39.020Z,25.60
2018-07-15T21:32:07.671Z,25.70
2018-07-15T21:34:36.286Z,25.70
2018-07-15T21:39:33.179Z,25.50
2018-07-15T21:42:01.816Z,25.40
2018-07-15T21:44:30.524Z,25.30
2018-07-15T21:46:59.181Z,25.30
2018-07-15T21:49:27.896Z,25.20
2018-07-15T21:51:56.541Z,25.30
2018-07-15T21:54:25.279Z,25.20
2018-07-15T21:56:53.892Z,25.10
2018-07-15T21:59:22.883Z,25.00
2018-07-15T22:01:51.523Z,24.90
2018-07-15T22:04:20.256Z,24.70
2018-07-15T22:06:59.900Z,24.60
2018-07-15T22:09:53.256Z,24.60
2018-07-15T22:12:22.040Z,24.40
2018-07-15T22:14:50.762Z,24.30
2018-07-15T22:17:19.635Z,24.30
2018-07-15T22:19:48.276Z,24.30
2018-07-15T22:22:17.123Z,24.30
2018-07-15T22:24:45.795Z,24.40
2018-07-15T22:27:14.493Z,24.40
2018-07-15T22:29:43.127Z,24.40
2018-07-15T22:32:11.881Z,24.60
2018-07-15T22:34:40.571Z,24.70
2018-07-15T22:37:09.282Z,24.70
2018-07-15T22:39:37.969Z,24.60
2018-07-15T22:42:06.695Z,24.70
2018-07-15T22:44:35.336Z,24.80
2018-07-15T22:47:04.006Z,24.80
2018-07-15T22:49:32.648Z,24.80
2018-07-15T22:52:01.324Z,24.70
2018-07-15T22:54:30.065Z,24.80
2018-07-15T22:56:58.764Z,24.80
2018-07-15T22:59:27.408Z,24.80
2018-07-15T23:01:56.073Z,24.80
2018-07-15T23:04:35.416Z,24.90
2018-07-15T23:07:04.060Z,24.90
2018-07-15T23:09:32.688Z,24.90
2018-07-15T23:12:01.372Z,24.90
2018-07-15T23:14:30.050Z,24.90
2018-07-15T23:16:58.715Z,25.00
2018-07-15T23:19:27.376Z,24.90
2018-07-15T23:21:56.020Z,24.90
2018-07-15T23:24:24.662Z,24.90
2018-07-15T23:26:53.308Z,24.90
2018-07-15T23:29:21.960Z,24.80
2018-07-15T23:31:50.605Z,24.80
2018-07-15T23:36:47.512Z,24.70
2018-07-15T23:39:16.146Z,24.70
2018-07-15T23:41:44.799Z,24.70
2018-07-15T23:44:13.456Z,24.60
2018-07-15T23:46:42.092Z,24.60
2018-07-15T23:51:39.092Z,24.70
2018-07-15T23:54:07.720Z,24.60
2018-07-15T23:56:36.354Z,24.60
2018-07-15T23:59:05.013Z,24.60
